.
WxDataArchive / Data Records for 2009-02-03
2009-02-02 February 2009 2009-02-04

Data Records for Tuesday, 03 February 2009

Time	Temp	Chill	HIndex	Humid	Dewpt	 Wind 	HiWind	WindDir	Rain 	Barom 
-----	----	-----	------	-----	-----	------	------	-------	-----	----- 
00:00	19.5	19.5	19.5	69	11.0	1	3	248	0.00	30.057 
00:05	19.4	19.4	19.4	69	10.9	1	4	248	0.00	30.056 
00:10	19.1	19.1	19.1	68	10.3	1	2	248	0.00	30.054 
00:15	18.9	18.9	18.9	67	9.8	1	4	248	0.00	30.054 
00:20	18.9	18.9	18.9	66	9.4	1	4	248	0.00	30.053 
00:25	18.8	18.8	18.8	65	9.0	1	2	248	0.00	30.053 
00:30	18.6	18.6	18.6	64	8.5	1	3	248	0.00	30.053 
00:35	18.6	18.6	18.6	63	8.1	1	4	270	0.00	30.052 
00:40	18.4	18.4	18.4	62	7.6	1	4	248	0.00	30.052 
00:45	18.3	18.3	18.3	62	7.5	1	2	248	0.00	30.052 
00:50	18.3	18.3	18.3	62	7.5	1	3	248	0.00	30.050 
00:55	18.1	18.1	18.1	62	7.3	1	3	270	0.00	30.049 
01:00	18.0	18.0	18.0	62	7.2	1	3	270	0.00	30.047 
01:05	17.8	17.8	17.8	62	7.0	1	3	248	0.00	30.045 
01:10	17.7	17.7	17.7	62	6.9	1	4	292	0.00	30.045 
01:15	17.7	17.7	17.7	62	6.9	1	3	270	0.00	30.041 
01:20	17.5	17.5	17.5	62	6.7	1	3	270	0.00	30.041 
01:25	17.3	17.3	17.3	62	6.5	1	2	270	0.00	30.039 
01:30	17.2	17.2	17.2	62	6.4	0	2	270	0.00	30.038 
01:35	17.0	17.0	17.0	63	6.6	0	2	270	0.00	30.034 
01:40	16.9	16.9	16.9	63	6.5	0	0	---	0.00	30.024 
01:45	16.5	16.5	16.5	63	6.1	0	0	---	0.00	30.024 
01:50	16.1	16.1	16.1	64	6.1	0	0	---	0.00	30.024 
01:55	15.7	15.7	15.7	65	6.1	0	0	---	0.00	30.024 
02:00	15.4	15.4	15.4	65	5.8	0	1	248	0.00	30.026 
02:05	15.1	15.1	15.1	66	5.8	0	0	---	0.00	30.026 
02:10	14.8	14.8	14.8	66	5.5	0	0	---	0.00	30.026 
02:15	14.3	14.3	14.3	67	5.4	0	0	---	0.00	30.025 
02:20	13.8	13.8	13.8	67	4.9	0	0	---	0.00	30.025 
02:25	13.3	13.3	13.3	68	4.7	0	0	---	0.00	30.026 
02:30	12.9	12.9	12.9	69	4.7	0	0	---	0.00	30.029 
02:35	12.4	12.4	12.4	69	4.2	0	0	---	0.00	30.028 
02:40	11.9	11.9	11.9	70	4.0	0	0	---	0.00	30.027 
02:45	11.4	11.4	11.4	71	3.9	0	0	---	0.00	30.026 
02:50	11.1	11.1	11.1	72	3.9	0	0	---	0.00	30.028 
02:55	10.7	10.7	10.7	73	3.8	0	0	---	0.00	30.028 
03:00	10.5	10.5	10.5	73	3.6	0	0	---	0.00	30.026 
03:05	10.4	10.4	10.4	74	3.8	0	0	---	0.00	30.027 
03:10	10.4	10.4	10.4	75	4.1	0	0	---	0.00	30.026 
03:15	10.2	10.2	10.2	76	4.2	0	0	---	0.00	30.026 
03:20	10.0	10.0	10.0	76	4.0	0	0	---	0.00	30.026 
03:25	9.7	9.7	9.7	77	4.0	0	0	---	0.00	30.025 
03:30	9.5	9.5	9.5	77	3.8	0	0	---	0.00	30.020 
03:35	9.3	9.3	9.3	78	3.9	0	0	---	0.00	30.019 
03:40	9.3	9.3	9.3	78	3.9	0	0	---	0.00	30.019 
03:45	9.2	9.2	9.2	78	3.8	0	0	---	0.00	30.020 
03:50	9.0	9.0	9.0	79	3.8	0	0	---	0.00	30.020 
03:55	8.8	8.8	8.8	79	3.6	0	0	---	0.00	30.020 
04:00	8.8	8.8	8.8	80	3.9	0	1	248	0.00	30.019 
04:05	8.6	8.6	8.6	80	3.7	0	0	---	0.00	30.022 
04:10	8.6	8.6	8.6	80	3.7	0	0	---	0.00	30.022 
04:15	8.6	8.6	8.6	81	4.0	0	0	---	0.00	30.021 
04:20	8.4	8.4	8.4	81	3.8	0	0	---	0.00	30.021 
04:25	8.4	8.4	8.4	81	3.8	0	0	---	0.00	30.023 
04:30	8.6	8.6	8.6	81	4.0	0	0	---	0.00	30.021 
04:35	8.6	8.6	8.6	81	4.0	0	0	---	0.00	30.021 
04:40	8.6	8.6	8.6	82	4.3	0	0	---	0.00	30.024 
04:45	8.8	8.8	8.8	82	4.5	0	0	---	0.00	30.021 
04:50	9.0	9.0	9.0	83	4.9	0	0	---	0.00	30.021 
04:55	9.2	9.2	9.2	83	5.1	0	0	---	0.00	30.023 
05:00	9.3	9.3	9.3	83	5.2	0	0	---	0.00	30.024 
05:05	9.5	9.5	9.5	83	5.4	0	0	---	0.00	30.029 
05:10	9.7	9.7	9.7	83	5.6	0	0	---	0.00	30.028 
05:15	9.7	9.7	9.7	83	5.6	0	0	---	0.00	30.027 
05:20	9.9	9.9	9.9	83	5.8	0	0	---	0.00	30.025 
05:25	9.7	9.7	9.7	83	5.6	0	0	---	0.00	30.024 
05:30	9.9	9.9	9.9	83	5.8	0	0	---	0.00	30.020 
05:35	10.0	10.0	10.0	84	6.2	0	0	---	0.00	30.018 
05:40	10.2	10.2	10.2	84	6.3	0	0	---	0.00	30.014 
05:45	10.4	10.4	10.4	84	6.5	0	0	---	0.00	30.001 
05:50	10.7	10.7	10.7	83	6.6	1	3	248	0.00	30.016 
05:55	11.1	11.1	11.1	83	7.0	0	1	248	0.00	30.026 
06:00	11.2	11.2	11.2	83	7.1	0	1	248	0.00	30.024 
06:05	11.6	11.6	11.6	83	7.5	0	1	248	0.00	30.033 
06:10	11.7	11.7	11.7	82	7.3	0	2	248	0.00	30.037 
06:15	11.9	11.9	11.9	81	7.2	0	1	248	0.00	30.035 
06:20	12.1	12.1	12.1	81	7.4	0	2	248	0.00	30.035 
06:25	12.4	12.4	12.4	81	7.7	0	2	248	0.00	30.037 
06:30	12.6	12.6	12.6	80	7.6	0	1	248	0.00	30.036 
06:35	12.8	12.8	12.8	79	7.5	0	1	248	0.00	30.034 
06:40	12.8	12.8	12.8	78	7.3	0	0	---	0.00	30.032 
06:45	12.8	12.8	12.8	77	7.0	0	0	---	0.00	30.031 
06:50	12.9	12.9	12.9	77	7.1	0	1	248	0.00	30.032 
06:55	12.9	12.9	12.9	76	6.8	0	1	248	0.00	30.032 
07:00	13.1	13.1	13.1	76	7.0	0	0	---	0.00	30.032 
07:05	13.1	13.1	13.1	75	6.7	0	0	---	0.00	30.034 
07:10	13.1	13.1	13.1	75	6.7	0	1	248	0.00	30.035 
07:15	13.3	13.3	13.3	75	6.9	0	1	248	0.00	30.035 
07:20	13.3	13.3	13.3	75	6.9	0	2	248	0.00	30.036 
07:25	13.3	13.3	13.3	75	6.9	0	0	---	0.00	30.036 
07:30	13.3	13.3	13.3	75	6.9	0	2	248	0.00	30.036 
07:35	13.3	13.3	13.3	75	6.9	0	1	248	0.00	30.035 
07:40	13.1	13.1	13.1	76	7.0	0	1	248	0.00	30.038 
07:45	13.1	13.1	13.1	77	7.3	0	1	248	0.00	30.041 
07:50	13.1	13.1	13.1	77	7.3	0	1	248	0.00	30.037 
07:55	12.9	12.9	12.9	77	7.1	0	0	---	0.00	30.037 
08:00	12.9	12.9	12.9	78	7.4	0	0	---	0.00	30.037 
08:05	12.9	12.9	12.9	78	7.4	0	1	248	0.00	30.039 
08:10	12.9	12.9	12.9	79	7.6	0	0	---	0.00	30.040 
08:15	13.1	13.1	13.1	79	7.8	0	0	---	0.00	30.038 
08:20	13.1	13.1	13.1	79	7.8	0	1	248	0.00	30.038 
08:25	13.3	13.3	13.3	79	8.0	0	1	248	0.00	30.039 
08:30	13.5	13.5	13.5	80	8.5	0	1	248	0.00	30.039 
08:35	13.5	13.5	13.5	80	8.5	1	2	292	0.00	30.037 
08:40	13.6	13.6	13.6	80	8.6	1	3	248	0.00	30.039 
08:45	13.8	13.8	13.8	79	8.5	1	2	315	0.00	30.040 
08:50	14.0	14.0	14.0	79	8.7	0	2	292	0.00	30.039 
08:55	14.1	14.1	14.1	79	8.8	0	1	292	0.00	30.037 
09:00	14.1	14.1	14.1	79	8.8	1	3	292	0.00	30.036 
09:05	14.3	14.3	14.3	79	9.0	1	3	292	0.00	30.039 
09:10	14.3	14.3	14.3	79	9.0	0	2	292	0.00	30.037 
09:15	14.4	14.4	14.4	79	9.1	0	3	292	0.00	30.037 
09:20	14.6	14.6	14.6	78	9.0	1	3	292	0.00	30.035 
09:25	14.8	14.8	14.8	78	9.2	0	2	292	0.00	30.036 
09:30	14.9	14.9	14.9	78	9.3	0	2	292	0.00	30.034 
09:35	15.2	15.2	15.2	78	9.6	0	2	292	0.00	30.035 
09:40	15.4	15.4	15.4	77	9.5	1	3	292	0.00	30.035 
09:45	15.6	15.6	15.6	77	9.7	1	3	292	0.00	30.035 
09:50	15.7	15.7	15.7	77	9.8	1	3	315	0.00	30.037 
09:55	15.9	15.9	15.9	76	9.7	0	2	315	0.00	30.039 
10:00	16.2	16.2	16.2	76	10.0	0	3	45	0.00	30.038 
10:05	16.4	16.4	16.4	75	9.9	0	3	0	0.00	30.038 
10:10	16.4	16.4	16.4	75	9.9	1	3	292	0.00	30.039 
10:15	16.5	16.5	16.5	75	10.0	0	2	292	0.00	30.035 
10:20	16.7	16.7	16.7	74	9.9	1	3	0	0.00	30.036 
10:25	16.9	16.9	16.9	74	10.1	0	2	0	0.00	30.038 
10:30	16.9	16.9	16.9	73	9.8	1	3	270	0.00	30.041 
10:35	16.9	16.9	16.9	73	9.8	1	3	270	0.00	30.042 
10:40	17.0	17.0	17.0	73	9.9	1	3	270	0.00	30.046 
10:45	17.2	17.2	17.2	73	10.1	0	2	270	0.00	30.045 
10:50	17.7	17.7	17.7	73	10.5	0	2	315	0.00	30.046 
10:55	18.0	18.0	18.0	72	10.5	0	2	315	0.00	30.049 
11:00	18.1	18.1	18.1	72	10.6	1	3	270	0.00	30.052 
11:05	18.4	18.4	18.4	71	10.6	1	3	270	0.00	30.053 
11:10	18.4	18.4	18.4	71	10.6	1	3	315	0.00	30.052 
11:15	18.6	18.6	18.6	71	10.8	1	2	270	0.00	30.051 
11:20	18.8	18.8	18.8	71	11.0	1	3	0	0.00	30.050 
11:25	19.1	19.1	19.1	71	11.3	1	2	270	0.00	30.051 
11:30	19.2	19.2	19.2	70	11.0	1	3	270	0.00	30.050 
11:35	19.4	19.4	19.4	69	10.9	1	3	270	0.00	30.049 
11:40	19.7	19.7	19.7	69	11.2	1	3	270	0.00	30.047 
11:45	20.2	20.2	20.2	68	11.4	0	2	338	0.00	30.046 
11:50	20.2	20.2	20.2	67	11.0	1	2	338	0.00	30.045 
11:55	20.3	20.3	20.3	67	11.1	1	3	315	0.00	30.044 
12:00	20.5	20.5	20.5	66	11.0	0	2	292	0.00	30.045 
12:05	20.6	20.6	20.6	65	10.7	1	4	292	0.00	30.045 
12:10	21.0	21.0	21.0	65	11.1	1	4	270	0.00	30.043 
12:15	21.0	21.0	21.0	65	11.1	1	4	270	0.00	30.042 
12:20	21.3	21.3	21.3	64	11.0	1	3	315	0.00	30.042 
12:25	21.6	21.6	21.6	64	11.3	1	3	338	0.00	30.040 
12:30	21.6	21.6	21.6	63	11.0	1	3	0	0.00	30.038 
12:35	21.8	21.8	21.8	63	11.2	1	3	270	0.00	30.036 
12:40	21.9	21.9	21.9	62	10.9	1	3	0	0.00	30.034 
12:45	21.8	21.8	21.8	62	10.8	0	2	0	0.00	30.035 
12:50	21.9	21.9	21.9	62	10.9	1	4	338	0.00	30.032 
12:55	21.9	21.9	21.9	61	10.5	1	5	292	0.00	30.033 
13:00	22.2	22.2	22.2	60	10.5	1	2	315	0.00	30.031 
13:05	22.4	22.4	22.4	59	10.3	2	6	270	0.00	30.035 
13:10	22.5	22.5	22.5	58	10.0	1	4	338	0.00	30.033 
13:15	22.4	22.4	22.4	57	9.5	1	4	338	0.00	30.033 
13:20	22.4	22.4	22.4	57	9.5	1	3	315	0.00	30.035 
13:25	22.2	22.2	22.2	56	8.9	2	5	270	0.00	30.035 
13:30	22.4	22.4	22.4	56	9.1	1	5	270	0.00	30.035 
13:35	22.4	22.4	22.4	54	8.3	1	4	315	0.00	30.035 
13:40	22.5	22.5	22.5	55	8.8	1	3	0	0.00	30.033 
13:45	22.7	22.7	22.7	56	9.4	1	3	315	0.00	30.033 
13:50	23.2	23.2	23.2	56	9.9	0	2	338	0.00	30.033 
13:55	23.5	23.5	23.5	54	9.3	1	6	270	0.00	30.033 
14:00	23.6	23.6	23.6	54	9.4	1	3	292	0.00	30.033 
14:05	23.5	23.5	23.5	55	9.7	1	4	292	0.00	30.038 
14:10	23.2	23.2	23.2	54	9.1	2	4	270	0.00	30.039 
14:15	22.9	22.9	22.9	55	9.2	1	4	315	0.00	30.040 
14:20	22.9	22.9	22.9	54	8.8	1	4	270	0.00	30.040 
14:25	23.0	23.0	23.0	55	9.3	1	6	0	0.00	30.039 
14:30	23.0	23.0	23.0	55	9.3	1	4	315	0.00	30.041 
14:35	23.2	23.2	23.2	54	9.1	1	3	315	0.00	30.043 
14:40	23.0	23.0	23.0	53	8.4	2	5	315	0.00	30.042 
14:45	22.5	22.5	22.5	53	8.0	2	6	338	0.00	30.044 
14:50	22.5	22.5	22.5	53	8.0	2	4	270	0.00	30.046 
14:55	22.7	22.7	22.7	52	7.7	2	7	315	0.00	30.048 
15:00	22.9	22.9	22.9	53	8.4	2	5	315	0.00	30.051 
15:05	23.2	23.2	23.2	52	8.2	2	6	270	0.00	30.053 
15:10	23.2	23.2	23.2	52	8.2	2	5	315	0.00	30.054 
15:15	23.0	23.0	23.0	51	7.6	1	5	338	0.00	30.055 
15:20	23.2	23.2	23.2	52	8.2	1	4	338	0.00	30.055 
15:25	22.9	22.9	22.9	52	7.9	2	4	270	0.00	30.057 
15:30	22.4	22.4	22.4	52	7.5	1	4	315	0.00	30.060 
15:35	22.2	22.2	22.2	53	7.7	2	4	315	0.00	30.065 
15:40	22.2	22.2	22.2	54	8.1	2	5	315	0.00	30.069 
15:45	22.1	22.1	22.1	54	8.0	2	9	270	0.00	30.071 
15:50	21.8	21.8	21.8	56	8.5	2	7	270	0.00	30.072 
15:55	21.4	21.4	21.4	57	8.6	1	4	315	0.00	30.073 
16:00	21.3	21.3	21.3	57	8.5	1	4	338	0.00	30.074 
16:05	21.3	21.3	21.3	56	8.1	1	3	315	0.00	30.074 
16:10	21.4	21.4	21.4	56	8.2	1	2	270	0.00	30.076 
16:15	21.6	21.6	21.6	57	8.8	1	3	315	0.00	30.080 
16:20	21.8	21.8	21.8	57	8.9	1	3	292	0.00	30.081 
16:25	21.6	21.6	21.6	56	8.4	1	4	292	0.00	30.084 
16:30	21.6	21.6	21.6	57	8.8	1	2	338	0.00	30.084 
16:35	21.6	21.6	21.6	57	8.8	1	3	270	0.00	30.085 
16:40	21.4	21.4	21.4	58	8.9	1	2	315	0.00	30.088 
16:45	21.4	21.4	21.4	58	8.9	1	4	270	0.00	30.088 
16:50	21.4	21.4	21.4	59	9.3	1	3	315	0.00	30.089 
16:55	21.6	21.6	21.6	59	9.5	0	2	292	0.00	30.089 
17:00	21.6	21.6	21.6	59	9.5	1	3	248	0.00	30.091 
17:05	21.6	21.6	21.6	60	9.9	1	3	315	0.00	30.092 
17:10	21.6	21.6	21.6	62	10.6	1	3	292	0.00	30.095 
17:15	21.4	21.4	21.4	64	11.1	1	3	315	0.00	30.099 
17:20	21.4	21.4	21.4	66	11.8	0	3	248	0.00	30.102 
17:25	21.3	21.3	21.3	65	11.4	1	4	292	0.00	30.102 
17:30	21.1	21.1	21.1	65	11.2	1	3	338	0.00	30.104 
17:35	21.0	21.0	21.0	66	11.5	1	3	315	0.00	30.108 
17:40	20.6	20.6	20.6	68	11.7	1	3	315	0.00	30.112 
17:45	20.3	20.3	20.3	69	11.8	1	2	315	0.00	30.114 
17:50	20.2	20.2	20.2	70	12.0	1	5	270	0.00	30.118 
17:55	20.0	20.0	20.0	70	11.8	1	2	248	0.00	30.120 
18:00	19.9	19.9	19.9	71	12.0	1	3	315	0.00	30.122 
18:05	19.7	19.7	19.7	72	12.2	1	3	315	0.00	30.124 
18:10	19.4	19.4	19.4	73	12.2	1	3	315	0.00	30.127 
18:15	19.2	19.2	19.2	74	12.3	0	1	270	0.00	30.132 
18:20	19.1	19.1	19.1	75	12.5	1	3	248	0.00	30.133 
18:25	19.1	19.1	19.1	76	12.8	0	2	248	0.00	30.134 
18:30	19.1	19.1	19.1	77	13.1	0	2	248	0.00	30.137 
18:35	19.1	19.1	19.1	77	13.1	0	2	248	0.00	30.139 
18:40	19.1	19.1	19.1	77	13.1	0	2	248	0.00	30.140 
18:45	19.1	19.1	19.1	77	13.1	0	2	248	0.00	30.141 
18:50	18.9	18.9	18.9	77	12.9	1	3	270	0.00	30.142 
18:55	18.9	18.9	18.9	77	12.9	1	4	270	0.00	30.144 
19:00	18.9	18.9	18.9	77	12.9	1	2	270	0.00	30.145 
19:05	18.9	18.9	18.9	78	13.2	1	2	270	0.00	30.146 
19:10	18.8	18.8	18.8	78	13.1	0	1	270	0.00	30.146 
19:15	18.6	18.6	18.6	79	13.2	1	3	270	0.00	30.148 
19:20	18.6	18.6	18.6	79	13.2	0	1	270	0.00	30.148 
19:25	18.4	18.4	18.4	79	13.0	1	3	270	0.00	30.151 
19:30	18.4	18.4	18.4	79	13.0	1	3	248	0.00	30.151 
19:35	18.4	18.4	18.4	80	13.3	1	3	248	0.00	30.152 
19:40	18.3	18.3	18.3	80	13.2	0	2	248	0.00	30.155 
19:45	18.3	18.3	18.3	80	13.2	1	4	248	0.00	30.155 
19:50	18.3	18.3	18.3	80	13.2	0	2	270	0.00	30.155 
19:55	18.1	18.1	18.1	80	13.0	0	1	270	0.00	30.156 
20:00	18.1	18.1	18.1	80	13.0	0	2	270	0.00	30.158 
20:05	18.0	18.0	18.0	80	12.9	1	3	270	0.00	30.157 
20:10	18.0	18.0	18.0	80	12.9	1	2	248	0.00	30.159 
20:15	18.0	18.0	18.0	80	12.9	1	2	315	0.00	30.162 
20:20	18.0	18.0	18.0	80	12.9	1	3	338	0.00	30.163 
20:25	18.0	18.0	18.0	81	13.2	0	2	248	0.00	30.163 
20:30	18.0	18.0	18.0	81	13.2	1	2	248	0.00	30.164 
20:35	18.0	18.0	18.0	82	13.5	1	3	248	0.00	30.164 
20:40	18.0	18.0	18.0	82	13.5	1	2	248	0.00	30.164 
20:45	18.0	18.0	18.0	82	13.5	1	2	315	0.00	30.164 
20:50	18.0	18.0	18.0	83	13.7	1	3	248	0.00	30.165 
20:55	18.0	18.0	18.0	83	13.7	0	2	338	0.00	30.165 
21:00	18.0	18.0	18.0	83	13.7	1	2	292	0.00	30.166 
21:05	18.0	18.0	18.0	84	14.0	0	2	292	0.00	30.165 
21:10	18.1	18.1	18.1	84	14.1	0	1	292	0.00	30.166 
21:15	18.1	18.1	18.1	84	14.1	0	2	292	0.00	30.168 
21:20	18.1	18.1	18.1	84	14.1	0	2	292	0.00	30.169 
21:25	18.1	18.1	18.1	84	14.1	0	2	315	0.00	30.173 
21:30	18.1	18.1	18.1	84	14.1	0	2	315	0.00	30.175 
21:35	18.1	18.1	18.1	85	14.4	0	2	315	0.00	30.176 
21:40	18.1	18.1	18.1	85	14.4	0	1	315	0.00	30.177 
21:45	18.0	18.0	18.0	85	14.3	0	2	315	0.00	30.178 
21:50	17.8	17.8	17.8	85	14.1	0	2	315	0.00	30.179 
21:55	17.7	17.7	17.7	85	14.0	0	2	315	0.00	30.181 
22:00	17.5	17.5	17.5	85	13.8	0	2	270	0.00	30.184 
22:05	17.3	17.3	17.3	85	13.6	0	1	270	0.00	30.186 
22:10	17.2	17.2	17.2	85	13.5	0	1	270	0.00	30.189 
22:15	17.2	17.2	17.2	85	13.5	0	2	270	0.00	30.193 
22:20	17.2	17.2	17.2	85	13.5	0	1	270	0.00	30.194 
22:25	17.2	17.2	17.2	85	13.5	0	1	270	0.00	30.195 
22:30	17.2	17.2	17.2	84	13.2	0	2	270	0.00	30.196 
22:35	17.3	17.3	17.3	83	13.0	0	2	90	0.00	30.197 
22:40	17.3	17.3	17.3	82	12.8	0	2	45	0.00	30.200 
22:45	17.5	17.5	17.5	80	12.4	1	3	0	0.00	30.204 
22:50	17.5	17.5	17.5	78	11.8	0	2	0	0.00	30.206 
22:55	17.5	17.5	17.5	77	11.5	0	1	338	0.00	30.208 
23:00	17.3	17.3	17.3	77	11.3	0	2	68	0.00	30.210 
23:05	17.3	17.3	17.3	77	11.3	0	3	68	0.00	30.208 
23:10	17.3	17.3	17.3	77	11.3	1	4	45	0.00	30.208 
23:15	17.2	17.2	17.2	77	11.3	0	1	248	0.00	30.210 
23:20	17.0	17.0	17.0	77	11.1	0	2	338	0.00	30.210 
23:25	17.0	17.0	17.0	77	11.1	1	4	0	0.00	30.211 
23:30	16.9	16.9	16.9	77	11.0	1	3	338	0.00	30.213 
23:35	16.7	16.7	16.7	76	10.5	0	2	22	0.00	30.215 
23:40	16.5	16.5	16.5	76	10.3	0	3	225	0.00	30.215 
23:45	16.2	16.2	16.2	76	10.0	0	3	45	0.00	30.218 
23:50	16.1	16.1	16.1	76	9.9	0	1	292	0.00	30.218 
23:55	15.9	15.9	15.9	76	9.7	0	3	292	0.00	30.220 

CoCoRaHS
IN-AL-39
A2 Web Hosting
Creative Commons License
GoDaddy
search engine by freefind advanced

loaded 2018-12-19 10:22:41 • last modified 2010-11-18 10:43:29
Privacy PolicyDisclaimer
• wx.awcolley.com is powered by PmWiki v.2002016 •
• all content (unless otherwise noted) © 2018 A W Colley